Fort Myers, FL

5:50 AM EDT on August 27, 2016 (GMT -0400)
Fort Myers | | Change Station

Elev 0 ft 26.64 °N, 81.87 °W | Updated 4 minutes ago

Scattered Clouds
Scattered Clouds
81.0 °F
Feels Like 88 °F
N
1.2
Wind Variable Wind from ESE
Gusts 5.0 mph

Today
High -- | Low -- °F
--% Chance of Precip.
Yesterday
High -- | Low -- °F
Precip. -- in
Pressure 29.90 in
Visibility 10.0 miles
Clouds Scattered Clouds 500 ft
Heat Index 88 °F
Dew Point 78 °F
Humidity 89%
Rainfall 0.00 in
Snow Depth Not available.
7:05 AM 7:52 PM
Waning Crescent, 26% visible
SPECI KFMY 270935Z AUTO 06004KT 10SM SCT005 26/25 A2990 RMK AO2 T02560250
Pressure 29.90 in
Visibility 10.0 miles
Clouds Scattered Clouds 500 ft
Heat Index 88 °F
Dew Point 78 °F
Humidity 89%
Rainfall 0.00 in
Snow Depth Not available.
7:05 AM 7:52 PM
Waning Crescent, 26% visible
SPECI KFMY 270935Z AUTO 06004KT 10SM SCT005 26/25 A2990 RMK AO2 T02560250

10-Day Weather Forecast

Almanac

Astronomy

Aug. 27, 2016 Rise Set
Actual Time
Civil Twilight
Nautical Twilight
Astronomical Twilight
Moon
Length of Visible Light
Length of Day
Tomorrow will be .
, % of the Moon is Illuminated

Today's Extremes

State Highs State Lows

Community

WunderPhotos

Upload Photos

1,935,313 photos uploaded!

WunderBlog® & News

Nearby

Air Quality

  Air Quality AQ Index Pollutant
Not available.

Snow Depth

Station Depth Elevation

Earthquake Activity

City Distance Mag. Time & Date
Minimum magnitude displayed is 2.5.

Coastal Water Temperatures

Place Temperature

Stations

Nearby Weather Stations

Station Location Temp. Windchill Dew Point Humidity Wind Precip. Elev Updated Type
                   

Watches & Warnings

There are currently no watches in effect.